Time;durP1;ratioP1;P1;durP2;ratioP2;P2;SDS_P1;SDS_P2;PMS_P1;PMS_P2;Temp;Humidity;BMP_temperature;BMP_pressure;BME280_temperature;BME280_humidity;BME280_pressure;Samples;Min_cycle;Max_cycle;Signal;HPM_P1;HPM_P2
2021/07/04 00:02:22;;;;;;;6.87;2.73;;;17.60;99.70;;;;;;5052434;28;20826;-66
2021/07/04 00:04:50;;;;;;;6.57;2.83;;;17.60;99.70;;;;;;5052205;28;20454;-66
2021/07/04 00:07:16;;;;;;;5.60;2.90;;;17.50;99.70;;;;;;5052488;28;20450;-67
2021/07/04 00:09:43;;;;;;;6.90;2.93;;;17.50;99.70;;;;;;5052291;28;20471;-67
2021/07/04 00:12:10;;;;;;;7.27;2.90;;;17.50;99.70;;;;;;5052253;28;20475;-66
2021/07/04 00:14:37;;;;;;;4.87;2.87;;;17.50;99.70;;;;;;5051966;28;20455;-66
2021/07/04 00:17:04;;;;;;;5.60;3.00;;;17.50;99.70;;;;;;5052094;28;20452;-66
2021/07/04 00:19:32;;;;;;;7.23;2.80;;;17.50;99.70;;;;;;5052524;28;20822;-66
2021/07/04 00:21:59;;;;;;;5.27;2.60;;;17.50;99.70;;;;;;5052125;28;20969;-67
2021/07/04 00:24:26;;;;;;;7.53;4.00;;;17.50;99.70;;;;;;5051669;28;20440;-66
2021/07/04 00:26:52;;;;;;;7.20;3.00;;;17.40;99.70;;;;;;5052127;28;20459;-66
2021/07/04 00:29:19;;;;;;;7.13;3.33;;;17.40;99.70;;;;;;5052138;28;20764;-66
2021/07/04 00:31:46;;;;;;;8.03;3.73;;;17.40;99.70;;;;;;5051912;28;20533;-66
2021/07/04 00:34:12;;;;;;;8.13;3.10;;;17.40;99.70;;;;;;5051553;28;20451;-66
2021/07/04 00:36:40;;;;;;;6.70;3.27;;;17.30;99.70;;;;;;5052066;28;20517;-66
2021/07/04 00:39:07;;;;;;;5.27;3.07;;;17.40;99.70;;;;;;5051614;28;20470;-67
2021/07/04 00:41:34;;;;;;;6.30;3.10;;;17.40;99.70;;;;;;5051841;28;20443;-66
2021/07/04 00:44:00;;;;;;;5.53;3.17;;;17.40;99.70;;;;;;5051728;28;20447;-66
2021/07/04 00:46:30;;;;;;;6.50;2.83;;;17.40;99.70;;;;;;5051411;28;20971;-66
2021/07/04 00:48:57;;;;;;;7.43;3.83;;;17.40;99.70;;;;;;5051514;28;20474;-66
2021/07/04 00:51:24;;;;;;;7.13;3.50;;;17.40;99.70;;;;;;5051587;28;20507;-66
2021/07/04 00:53:52;;;;;;;6.03;3.43;;;17.40;99.70;;;;;;5051031;28;20444;-66
2021/07/04 00:56:19;;;;;;;5.93;3.20;;;17.40;99.70;;;;;;5051387;28;20447;-66
2021/07/04 00:58:46;;;;;;;8.27;3.40;;;17.30;99.70;;;;;;5051423;28;20471;-66
2021/07/04 01:01:12;;;;;;;8.17;4.00;;;17.30;99.70;;;;;;5051485;28;20443;-66
2021/07/04 01:03:39;;;;;;;8.80;3.40;;;17.30;99.70;;;;;;5051264;28;20448;-66
2021/07/04 01:06:06;;;;;;;5.37;3.00;;;17.30;99.70;;;;;;5051156;28;20451;-66
2021/07/04 01:08:32;;;;;;;8.30;3.77;;;17.30;99.70;;;;;;5051113;28;20467;-67
2021/07/04 01:11:04;;;;;;;5.43;3.23;;;17.20;99.70;;;;;;5051375;28;20571;-67
2021/07/04 01:13:31;;;;;;;8.10;3.50;;;17.20;99.70;;;;;;5051423;28;20456;-67
2021/07/04 01:15:59;;;;;;;10.63;3.73;;;17.30;99.70;;;;;;5050867;28;20448;-66
2021/07/04 01:18:26;;;;;;;7.73;3.73;;;17.20;99.70;;;;;;5050955;28;20471;-66
2021/07/04 01:20:53;;;;;;;9.37;3.33;;;17.10;99.70;;;;;;5051107;28;20440;-67
2021/07/04 01:23:22;;;;;;;5.90;3.50;;;17.20;99.70;;;;;;5051137;28;20506;-67
2021/07/04 01:25:52;;;;;;;5.20;2.60;;;17.20;99.70;;;;;;5050761;28;20505;-66
2021/07/04 01:28:19;;;;;;;7.40;3.13;;;17.20;99.70;;;;;;5050819;28;20480;-66
2021/07/04 01:30:52;;;;;;;7.80;3.30;;;17.20;99.70;;;;;;5050845;28;20448;-66
2021/07/04 01:33:19;;;;;;;6.93;3.50;;;17.20;99.70;;;;;;5050854;28;20885;-67
2021/07/04 01:35:45;;;;;;;5.87;3.43;;;17.20;99.70;;;;;;5050566;28;20439;-66
2021/07/04 01:38:12;;;;;;;6.07;3.00;;;17.20;99.70;;;;;;5050615;28;20448;-66
2021/07/04 01:40:40;;;;;;;6.80;3.40;;;17.30;99.70;;;;;;5050754;28;20448;-66
2021/07/04 01:43:07;;;;;;;7.27;3.40;;;17.30;99.70;;;;;;5050548;28;20821;-65
2021/07/04 01:45:34;;;;;;;7.70;3.40;;;17.20;99.70;;;;;;5050304;28;20447;-65
2021/07/04 01:48:00;;;;;;;5.93;3.10;;;17.20;99.70;;;;;;5050571;28;20455;-65
2021/07/04 01:50:29;;;;;;;5.13;2.77;;;17.10;99.70;;;;;;5050335;28;20527;-65
2021/07/04 01:52:56;;;;;;;6.10;2.80;;;17.10;99.70;;;;;;5050474;28;20728;-65
2021/07/04 01:55:23;;;;;;;6.20;2.80;;;17.10;99.70;;;;;;5049755;28;20450;-65
2021/07/04 01:57:52;;;;;;;9.70;3.57;;;17.10;99.70;;;;;;5050548;28;20451;-65
2021/07/04 02:00:21;;;;;;;5.10;2.90;;;17.10;99.70;;;;;;5050294;28;20858;-65
2021/07/04 02:02:49;;;;;;;5.00;2.60;;;17.00;99.70;;;;;;5050324;28;20789;-65
2021/07/04 02:05:16;;;;;;;5.63;2.97;;;17.10;99.70;;;;;;5049898;28;20825;-65
2021/07/04 02:07:43;;;;;;;4.30;2.90;;;17.00;99.70;;;;;;5050210;28;20509;-65
2021/07/04 02:10:15;;;;;;;8.67;3.10;;;17.00;99.70;;;;;;5050065;28;20513;-65
2021/07/04 02:12:42;;;;;;;6.07;3.13;;;17.00;99.70;;;;;;5050214;28;21055;-65
2021/07/04 02:15:12;;;;;;;4.97;2.60;;;17.00;99.70;;;;;;5049389;28;21075;-65
2021/07/04 02:17:39;;;;;;;4.30;2.73;;;17.00;99.70;;;;;;5050223;28;20454;-65
2021/07/04 02:20:37;;;;;;;5.50;3.20;;;17.00;99.70;;;;;;5050004;28;20459;-65
2021/07/04 02:23:06;;;;;;;4.87;2.80;;;16.90;99.70;;;;;;5005494;28;20455;-65
2021/07/04 02:25:34;;;;;;;6.00;2.80;;;16.90;99.70;;;;;;5049771;28;20817;-65
2021/07/04 02:28:01;;;;;;;5.93;2.63;;;16.90;99.70;;;;;;5050138;28;20455;-65
2021/07/04 02:30:29;;;;;;;7.93;3.00;;;16.80;99.70;;;;;;5050161;28;20762;-65
2021/07/04 02:32:56;;;;;;;5.43;2.90;;;16.70;99.70;;;;;;5050135;28;20486;-65
2021/07/04 02:35:23;;;;;;;6.53;3.40;;;16.70;99.70;;;;;;5050082;28;20505;-65
2021/07/04 02:37:50;;;;;;;8.20;2.73;;;16.60;99.70;;;;;;5050150;28;20450;-65
2021/07/04 02:40:16;;;;;;;5.13;2.90;;;16.70;99.70;;;;;;5050310;28;20471;-65
2021/07/04 02:42:43;;;;;;;5.73;2.70;;;16.70;99.70;;;;;;5050276;28;20436;-65
2021/07/04 02:45:11;;;;;;;8.67;4.13;;;16.80;99.70;;;;;;5049816;28;20450;-65
2021/07/04 02:47:39;;;;;;;8.33;3.57;;;16.80;99.70;;;;;;5050346;28;20443;-65
2021/07/04 02:50:07;;;;;;;7.03;2.93;;;16.80;99.70;;;;;;5049921;28;20513;-65
2021/07/04 02:52:34;;;;;;;7.50;3.17;;;16.80;99.70;;;;;;5049764;28;20491;-65
2021/07/04 02:55:01;;;;;;;5.30;3.17;;;16.80;99.70;;;;;;5049183;28;20443;-65
2021/07/04 02:57:28;;;;;;;5.80;3.23;;;16.80;99.70;;;;;;5049947;28;20455;-65
2021/07/04 02:59:54;;;;;;;8.00;2.83;;;16.80;99.70;;;;;;5049671;28;21061;-65
2021/07/04 03:02:21;;;;;;;6.33;3.37;;;16.80;99.70;;;;;;5049862;28;20935;-65
2021/07/04 03:04:49;;;;;;;15.13;3.17;;;16.80;99.70;;;;;;5049397;28;20865;-65
2021/07/04 03:07:16;;;;;;;5.63;2.73;;;16.80;99.70;;;;;;5049774;28;20846;-65
2021/07/04 03:09:43;;;;;;;8.00;3.53;;;16.80;99.70;;;;;;5049543;28;20470;-66
2021/07/04 03:12:10;;;;;;;9.50;3.10;;;16.90;99.70;;;;;;5049674;28;20479;-65
2021/07/04 03:14:37;;;;;;;6.90;3.00;;;16.90;99.70;;;;;;5049447;28;20578;-65
2021/07/04 03:17:04;;;;;;;6.90;3.13;;;16.90;99.70;;;;;;5049695;28;20505;-65
2021/07/04 03:19:31;;;;;;;8.30;2.87;;;16.90;99.70;;;;;;5049551;28;20459;-65
2021/07/04 03:21:59;;;;;;;7.37;3.37;;;16.90;99.70;;;;;;5049598;28;20439;-65
2021/07/04 03:24:26;;;;;;;5.87;3.10;;;16.90;99.70;;;;;;5049257;28;20944;-65
2021/07/04 03:26:53;;;;;;;8.90;3.57;;;16.90;99.70;;;;;;5049924;28;20879;-65
2021/07/04 03:29:20;;;;;;;6.17;3.10;;;16.90;99.70;;;;;;5053065;28;20482;-65
2021/07/04 03:31:46;;;;;;;6.53;3.30;;;16.90;99.70;;;;;;5053061;28;20475;-65
2021/07/04 03:34:13;;;;;;;5.73;3.27;;;16.90;99.70;;;;;;5053001;28;20450;-65
2021/07/04 03:36:40;;;;;;;7.80;3.80;;;16.90;99.70;;;;;;5053248;28;20454;-65
2021/07/04 03:39:08;;;;;;;5.90;2.97;;;16.90;99.70;;;;;;5053074;28;20828;-65
2021/07/04 03:41:35;;;;;;;7.17;3.00;;;16.90;99.70;;;;;;5052961;28;20439;-65
2021/07/04 03:44:02;;;;;;;6.10;2.90;;;16.90;99.70;;;;;;5052840;28;20447;-65
2021/07/04 03:46:29;;;;;;;7.07;3.40;;;16.90;99.70;;;;;;5052830;28;20447;-65
2021/07/04 03:48:56;;;;;;;7.87;3.70;;;16.90;99.70;;;;;;5052903;28;20468;-67
2021/07/04 03:51:23;;;;;;;6.73;3.10;;;16.90;99.70;;;;;;5052617;28;20447;-67
2021/07/04 03:53:50;;;;;;;6.87;3.83;;;16.90;99.70;;;;;;5052281;28;20454;-65
2021/07/04 03:56:18;;;;;;;6.27;2.77;;;16.90;99.70;;;;;;5052500;28;20443;-65
2021/07/04 03:58:45;;;;;;;7.00;3.40;;;17.00;99.70;;;;;;5052658;28;20834;-67
2021/07/04 04:01:18;;;;;;;10.50;3.47;;;17.00;99.70;;;;;;5052607;28;20452;-67
2021/07/04 04:03:45;;;;;;;5.23;2.97;;;17.10;99.70;;;;;;5052492;28;20535;-65
2021/07/04 04:06:11;;;;;;;6.30;3.37;;;17.20;99.70;;;;;;5052319;28;20447;-65
2021/07/04 04:08:38;;;;;;;6.63;3.40;;;17.10;99.70;;;;;;5052483;28;20459;-67
2021/07/04 04:11:05;;;;;;;5.60;3.27;;;17.20;99.70;;;;;;5052401;28;20451;-67
2021/07/04 04:13:33;;;;;;;6.57;3.27;;;17.30;99.70;;;;;;5052359;28;21189;-67
2021/07/04 04:16:00;;;;;;;6.90;3.00;;;17.30;99.70;;;;;;5052016;28;20444;-68
2021/07/04 04:18:27;;;;;;;6.40;3.57;;;17.30;99.70;;;;;;5052267;28;21011;-67
2021/07/04 04:20:55;;;;;;;5.80;2.67;;;17.40;99.70;;;;;;5052177;28;20444;-67
2021/07/04 04:23:22;;;;;;;7.77;3.67;;;17.40;99.70;;;;;;5052166;28;20503;-67
2021/07/04 04:25:48;;;;;;;7.70;3.63;;;17.40;99.70;;;;;;5052953;28;20479;-68
2021/07/04 04:28:15;;;;;;;5.57;3.20;;;17.60;99.70;;;;;;5051968;28;20452;-67
2021/07/04 04:30:43;;;;;;;7.03;3.30;;;17.60;99.70;;;;;;5051952;28;20456;-67
2021/07/04 04:33:10;;;;;;;7.73;3.03;;;17.70;99.70;;;;;;5052013;28;20483;-67
2021/07/04 04:35:37;;;;;;;6.07;3.07;;;17.70;99.70;;;;;;5051737;28;20452;-67
2021/07/04 04:38:04;;;;;;;4.87;3.20;;;17.80;99.70;;;;;;5051360;28;20447;-67
2021/07/04 04:40:31;;;;;;;5.40;3.20;;;17.80;99.70;;;;;;5052020;28;20455;-67
2021/07/04 04:42:57;;;;;;;8.00;3.17;;;17.90;99.70;;;;;;5051994;28;20451;-66
2021/07/04 04:45:24;;;;;;;4.03;2.90;;;17.90;99.70;;;;;;5051613;28;21074;-67
2021/07/04 04:47:52;;;;;;;4.00;2.70;;;17.90;99.70;;;;;;5051724;28;20451;-67
2021/07/04 04:50:19;;;;;;;7.47;2.83;;;17.90;99.70;;;;;;5051570;28;20463;-67
2021/07/04 04:52:46;;;;;;;4.80;2.50;;;17.90;99.70;;;;;;5051382;28;21011;-65
2021/07/04 04:55:13;;;;;;;5.83;2.80;;;17.90;99.70;;;;;;5051240;28;20444;-67
2021/07/04 04:57:40;;;;;;;6.50;3.10;;;17.90;99.70;;;;;;5051526;28;20450;-67
2021/07/04 05:00:08;;;;;;;4.50;2.93;;;17.90;99.70;;;;;;5051680;28;20988;-67
2021/07/04 05:02:35;;;;;;;7.53;2.70;;;17.80;99.70;;;;;;5051380;28;20440;-67
2021/07/04 05:05:03;;;;;;;7.57;3.43;;;17.80;99.70;;;;;;5051099;28;20451;-67
2021/07/04 05:07:30;;;;;;;5.97;2.87;;;17.80;99.70;;;;;;5051318;28;20526;-67
2021/07/04 05:09:57;;;;;;;4.57;2.93;;;17.80;99.70;;;;;;5051348;28;20475;-67
2021/07/04 05:12:24;;;;;;;6.80;2.97;;;17.80;99.70;;;;;;5051133;28;20475;-67
2021/07/04 05:14:50;;;;;;;6.00;2.90;;;17.80;99.70;;;;;;5050894;28;20950;-65
2021/07/04 05:17:17;;;;;;;6.43;3.30;;;17.80;99.70;;;;;;5051246;28;20447;-65
2021/07/04 05:19:44;;;;;;;7.27;3.37;;;17.80;99.70;;;;;;5051427;28;21049;-66
2021/07/04 05:22:12;;;;;;;5.67;3.30;;;17.80;99.70;;;;;;5051410;28;20765;-66
2021/07/04 05:24:39;;;;;;;7.20;3.07;;;17.80;99.70;;;;;;5051140;28;20513;-64
2021/07/04 05:27:06;;;;;;;3.97;2.80;;;17.90;99.70;;;;;;5051134;28;20447;-64
2021/07/04 05:29:33;;;;;;;6.90;3.03;;;17.90;99.70;;;;;;5051281;28;20475;-64
2021/07/04 05:31:59;;;;;;;6.37;3.10;;;18.00;99.70;;;;;;5050992;28;20451;-66
2021/07/04 05:34:27;;;;;;;6.13;2.93;;;18.10;99.70;;;;;;5050899;28;20498;-67
2021/07/04 05:36:53;;;;;;;6.80;3.40;;;18.20;99.70;;;;;;5051046;28;20451;-67
2021/07/04 05:39:25;;;;;;;4.80;2.90;;;18.30;99.70;;;;;;5051013;28;20464;-65
2021/07/04 05:41:52;;;;;;;6.50;3.03;;;18.30;99.70;;;;;;5050941;28;20450;-64
2021/07/04 05:44:19;;;;;;;6.37;3.10;;;18.30;99.70;;;;;;5050352;28;20447;-64
2021/07/04 05:46:45;;;;;;;5.23;2.83;;;18.40;99.70;;;;;;5050642;28;20448;-64
2021/07/04 05:49:12;;;;;;;6.70;2.60;;;18.40;99.70;;;;;;5050211;28;20461;-64
2021/07/04 05:51:40;;;;;;;6.30;2.80;;;18.60;99.70;;;;;;5050230;28;20534;-64
2021/07/04 05:54:07;;;;;;;5.50;3.10;;;18.70;99.70;;;;;;5049905;28;20475;-64
2021/07/04 05:56:35;;;;;;;5.10;2.80;;;18.70;99.70;;;;;;5050641;28;20444;-64
2021/07/04 05:59:01;;;;;;;6.00;2.77;;;18.80;99.70;;;;;;5050282;28;20464;-65
2021/07/04 06:01:28;;;;;;;5.50;3.03;;;18.90;99.70;;;;;;5050379;28;20831;-65
2021/07/04 06:03:55;;;;;;;5.97;2.60;;;18.90;99.70;;;;;;5050227;28;20460;-65
2021/07/04 06:06:21;;;;;;;4.97;3.13;;;18.90;99.70;;;;;;5050138;28;20467;-64
2021/07/04 06:08:48;;;;;;;5.10;2.60;;;18.80;99.70;;;;;;5050212;28;20464;-64
2021/07/04 06:11:15;;;;;;;6.40;2.90;;;18.80;99.70;;;;;;5050348;28;20451;-64
2021/07/04 06:13:43;;;;;;;4.57;2.73;;;18.80;99.70;;;;;;5050195;28;20503;-67
2021/07/04 06:16:10;;;;;;;5.77;2.70;;;18.80;99.70;;;;;;5049926;28;20452;-66
2021/07/04 06:18:36;;;;;;;4.97;2.90;;;18.90;99.70;;;;;;5050038;28;20460;-65
2021/07/04 06:21:03;;;;;;;5.13;2.30;;;19.00;99.70;;;;;;5050291;28;20444;-65
2021/07/04 06:23:31;;;;;;;3.37;2.10;;;19.10;99.70;;;;;;5050001;28;20440;-64
2021/07/04 06:25:58;;;;;;;5.70;2.30;;;19.10;99.70;;;;;;5050118;28;20446;-65
2021/07/04 06:28:25;;;;;;;3.43;2.33;;;19.20;99.70;;;;;;5050091;28;21003;-65
2021/07/04 06:30:53;;;;;;;6.30;2.73;;;19.50;99.70;;;;;;5050165;28;20447;-65
2021/07/04 06:33:19;;;;;;;4.83;2.50;;;19.90;99.70;;;;;;5049880;28;20840;-65
2021/07/04 06:35:46;;;;;;;4.73;2.60;;;20.40;99.70;;;;;;5049788;28;20458;-65
2021/07/04 06:38:13;;;;;;;5.47;2.30;;;21.10;99.70;;;;;;5050068;28;20472;-65
2021/07/04 06:40:39;;;;;;;5.47;2.70;;;21.60;99.70;;;;;;5050342;28;20446;-65
2021/07/04 06:43:06;;;;;;;5.60;2.90;;;22.30;99.70;;;;;;5050227;28;20540;-66
2021/07/04 06:45:33;;;;;;;3.57;2.27;;;22.80;99.70;;;;;;5049943;28;20205;-66
2021/07/04 06:48:01;;;;;;;3.80;2.57;;;23.20;99.70;;;;;;5041754;28;20673;-65
2021/07/04 06:50:27;;;;;;;5.00;3.17;;;23.40;99.70;;;;;;5044442;28;20224;-65
2021/07/04 06:52:54;;;;;;;4.93;2.90;;;23.80;99.70;;;;;;5030174;28;20225;-66
2021/07/04 06:55:21;;;;;;;6.30;3.00;;;23.70;99.70;;;;;;5029451;28;20205;-65
2021/07/04 06:57:48;;;;;;;4.30;2.37;;;23.00;99.70;;;;;;5030317;28;20589;-65
2021/07/04 07:00:16;;;;;;;4.13;2.75;;;22.70;99.70;;;;;;5029907;28;20225;-65
2021/07/04 07:02:43;;;;;;;3.83;2.30;;;23.20;99.70;;;;;;5033393;28;20255;-65
2021/07/04 07:05:14;;;;;;;3.90;2.70;;;24.10;99.70;;;;;;5033426;28;20216;-66
2021/07/04 07:07:42;;;;;;;5.43;2.80;;;23.70;99.70;;;;;;5033965;28;20596;-65
2021/07/04 07:10:11;;;;;;;4.50;2.60;;;23.50;99.70;;;;;;5033536;28;20228;-65
2021/07/04 07:12:38;;;;;;;5.17;3.00;;;23.40;99.70;;;;;;5033571;28;20755;-65
2021/07/04 07:15:06;;;;;;;5.97;3.20;;;22.80;99.70;;;;;;5033197;28;20398;-65
2021/07/04 07:17:33;;;;;;;5.90;3.00;;;23.00;99.70;;;;;;5033574;28;20582;-65
2021/07/04 07:20:00;;;;;;;4.83;3.00;;;22.90;99.70;;;;;;5042357;28;20228;-65
2021/07/04 07:22:28;;;;;;;6.93;2.90;;;22.70;99.70;;;;;;5053348;28;20266;-65
2021/07/04 07:24:54;;;;;;;4.10;2.43;;;22.80;99.70;;;;;;5053014;28;20201;-65
2021/07/04 07:27:21;;;;;;;6.57;3.20;;;22.80;99.70;;;;;;5052365;28;20443;-65
2021/07/04 07:29:48;;;;;;;6.13;3.40;;;22.90;99.70;;;;;;5053018;28;21015;-65
2021/07/04 07:32:14;;;;;;;3.77;2.70;;;22.60;99.70;;;;;;5052745;28;20882;-65
2021/07/04 07:34:41;;;;;;;4.50;2.67;;;22.70;99.70;;;;;;5052604;28;20481;-65
2021/07/04 07:37:08;;;;;;;4.20;2.53;;;22.70;99.70;;;;;;5053139;28;20443;-65
2021/07/04 07:39:36;;;;;;;4.93;2.80;;;22.40;99.70;;;;;;5052814;28;20463;-65
2021/07/04 07:42:03;;;;;;;6.10;3.10;;;22.40;99.70;;;;;;5053075;28;20505;-65
2021/07/04 07:44:30;;;;;;;5.47;2.77;;;22.00;99.70;;;;;;5052397;28;20546;-65
2021/07/04 07:46:57;;;;;;;4.57;2.80;;;22.00;99.70;;;;;;5052958;28;20844;-65
2021/07/04 07:49:23;;;;;;;3.50;2.20;;;21.70;99.70;;;;;;5052887;28;20459;-65
2021/07/04 07:51:50;;;;;;;4.57;2.73;;;21.70;99.70;;;;;;5052756;28;20451;-65
2021/07/04 07:54:18;;;;;;;4.90;3.00;;;21.80;99.70;;;;;;5051997;28;20486;-65
2021/07/04 07:56:47;;;;;;;4.50;2.53;;;22.00;99.70;;;;;;5052969;28;20456;-65
2021/07/04 07:59:14;;;;;;;4.97;2.63;;;21.90;99.70;;;;;;5052320;28;20666;-65
2021/07/04 08:01:41;;;;;;;6.53;3.20;;;21.90;99.70;;;;;;5052540;28;20446;-65
2021/07/04 08:04:08;;;;;;;5.43;3.30;;;21.80;99.70;;;;;;5052093;28;20444;-65
2021/07/04 08:06:34;;;;;;;4.70;2.90;;;22.00;99.70;;;;;;5052405;28;20443;-65
2021/07/04 08:09:01;;;;;;;5.60;2.80;;;22.10;99.70;;;;;;5052193;28;20470;-65
2021/07/04 08:11:28;;;;;;;5.47;2.73;;;22.10;99.70;;;;;;5052375;28;20952;-65
2021/07/04 08:13:56;;;;;;;6.37;2.97;;;21.80;99.70;;;;;;5051391;28;20486;-65
2021/07/04 08:16:23;;;;;;;5.30;3.17;;;22.00;99.70;;;;;;5052084;28;20443;-65
2021/07/04 08:18:50;;;;;;;5.60;3.20;;;22.00;99.70;;;;;;5052303;28;20460;-65
2021/07/04 08:21:16;;;;;;;4.23;2.63;;;22.00;99.70;;;;;;5046487;28;20456;-66
2021/07/04 08:23:44;;;;;;;6.10;3.10;;;21.90;99.70;;;;;;5032811;28;20452;-66
2021/07/04 08:26:11;;;;;;;5.60;3.07;;;22.00;99.70;;;;;;5035863;28;20455;-66
2021/07/04 08:28:38;;;;;;;4.77;2.90;;;22.10;99.70;;;;;;5039606;28;20484;-65
2021/07/04 08:31:06;;;;;;;4.27;2.40;;;22.20;99.70;;;;;;5034858;28;20506;-66
2021/07/04 08:33:33;;;;;;;5.00;2.80;;;22.30;99.70;;;;;;5031645;28;20574;-65
2021/07/04 08:36:00;;;;;;;6.27;2.83;;;22.20;99.70;;;;;;5031361;28;20816;-66
2021/07/04 08:38:27;;;;;;;5.40;2.80;;;22.00;99.70;;;;;;5036908;28;20467;-66
2021/07/04 08:40:53;;;;;;;7.50;2.80;;;21.90;99.70;;;;;;5051380;28;20809;-66
2021/07/04 08:43:26;;;;;;;4.33;2.73;;;21.90;99.70;;;;;;5051541;28;20447;-66
2021/07/04 08:45:54;;;;;;;5.63;2.90;;;21.90;99.70;;;;;;5051034;28;20448;-66
2021/07/04 08:48:22;;;;;;;5.07;2.97;;;22.00;99.70;;;;;;5051500;28;20987;-66
2021/07/04 08:50:50;;;;;;;5.23;2.77;;;22.10;99.70;;;;;;5050904;28;20471;-66
2021/07/04 08:53:16;;;;;;;3.70;2.77;;;22.40;99.70;;;;;;5050897;28;20936;-66
2021/07/04 08:55:43;;;;;;;5.67;3.00;;;22.40;99.70;;;;;;5050809;28;20446;-66
2021/07/04 08:58:10;;;;;;;5.07;3.07;;;22.50;99.70;;;;;;5051407;28;20439;-67
2021/07/04 09:00:37;;;;;;;4.87;2.40;;;22.40;99.70;;;;;;5050637;28;20454;-67
2021/07/04 09:03:29;;;;;;;5.00;2.63;;;22.40;99.70;;;;;;5042272;28;20452;-67
2021/07/04 09:05:56;;;;;;;5.77;2.50;;;22.60;99.70;;;;;;5050645;28;20446;-66
2021/07/04 09:08:23;;;;;;;5.23;2.90;;;22.50;99.70;;;;;;5051277;28;20676;-66
2021/07/04 09:11:12;;;;;;;4.73;2.67;;;22.50;99.70;;;;;;5050923;28;20980;-66
2021/07/04 09:13:39;;;;;;;5.47;3.07;;;22.70;99.70;;;;;;5047107;28;21063;-66
2021/07/04 09:16:08;;;;;;;4.87;2.77;;;22.70;99.70;;;;;;5040904;28;20853;-67
2021/07/04 09:18:36;;;;;;;4.00;2.57;;;22.60;99.70;;;;;;5039880;28;20510;-66
2021/07/04 09:21:14;;;;;;;5.30;2.87;;;22.50;99.70;;;;;;5041969;28;20990;-67
2021/07/04 09:23:41;;;;;;;4.40;2.90;;;22.50;99.70;;;;;;5050582;28;20439;-66
2021/07/04 09:26:08;;;;;;;5.97;3.03;;;22.40;99.70;;;;;;5050122;28;20447;-67
2021/07/04 09:28:44;;;;;;;5.07;2.70;;;22.40;99.70;;;;;;5050445;28;20479;-66
2021/07/04 09:31:19;;;;;;;3.90;2.60;;;22.50;99.70;;;;;;5050147;28;20435;-66
2021/07/04 09:33:47;;;;;;;5.03;2.77;;;22.60;99.70;;;;;;5050501;28;20857;-66
2021/07/04 09:36:14;;;;;;;4.47;2.77;;;22.60;99.70;;;;;;5050337;28;20858;-66
2021/07/04 09:38:43;;;;;;;4.97;2.80;;;22.90;99.70;;;;;;5041446;28;20885;-66
2021/07/04 09:41:12;;;;;;;4.20;2.17;;;23.20;99.70;;;;;;5035360;28;20480;-66
2021/07/04 09:43:40;;;;;;;3.67;2.43;;;23.50;99.70;;;;;;5033144;28;20474;-67
2021/07/04 09:46:09;;;;;;;4.33;2.43;;;24.10;99.70;;;;;;5030197;28;20960;-67
2021/07/04 09:48:40;;;;;;;3.70;2.30;;;24.30;99.70;;;;;;5030516;28;20551;-67
2021/07/04 09:51:14;;;;;;;3.90;2.40;;;23.90;99.70;;;;;;5030659;28;20459;-66
2021/07/04 09:53:44;;;;;;;3.37;2.30;;;23.60;99.70;;;;;;5030100;28;20519;-66
2021/07/04 09:56:13;;;;;;;4.90;2.90;;;23.50;99.70;;;;;;5049057;28;20443;-67
2021/07/04 09:58:41;;;;;;;3.03;2.17;;;23.60;99.70;;;;;;5050276;28;20467;-67
2021/07/04 10:01:08;;;;;;;4.20;2.43;;;24.20;99.70;;;;;;5050071;28;20451;-67
2021/07/04 10:03:41;;;;;;;4.17;2.73;;;24.60;99.70;;;;;;5050122;28;20875;-67
2021/07/04 10:06:11;;;;;;;4.97;2.60;;;24.80;99.70;;;;;;5033978;28;20816;-67
2021/07/04 10:08:40;;;;;;;3.90;2.43;;;24.90;99.70;;;;;;5030368;28;20229;-67
2021/07/04 10:11:09;;;;;;;3.67;2.30;;;24.70;99.70;;;;;;5030095;28;20212;-66
2021/07/04 10:13:37;;;;;;;4.63;2.60;;;24.20;99.70;;;;;;5030068;28;20440;-66
2021/07/04 10:16:05;;;;;;;4.50;2.47;;;24.00;99.70;;;;;;5043887;28;20443;-66
2021/07/04 10:18:32;;;;;;;3.93;2.70;;;23.80;99.70;;;;;;5049942;28;20463;-66
2021/07/04 10:20:59;;;;;;;5.13;2.80;;;23.60;99.70;;;;;;5041287;28;20468;-66
2021/07/04 10:23:28;;;;;;;3.60;2.70;;;23.60;99.70;;;;;;5029925;28;20454;-67
2021/07/04 10:25:57;;;;;;;3.53;2.57;;;23.40;99.70;;;;;;5034093;28;20456;-67
2021/07/04 10:28:27;;;;;;;3.20;2.10;;;23.30;99.70;;;;;;5049767;28;20475;-66
2021/07/04 10:30:56;;;;;;;4.47;2.47;;;23.20;99.70;;;;;;5050123;28;20451;-66
2021/07/04 10:33:26;;;;;;;3.57;2.27;;;23.00;99.70;;;;;;5049978;28;20519;-66
2021/07/04 10:36:08;;;;;;;4.87;2.70;;;22.90;99.70;;;;;;5051145;28;20526;-66
2021/07/04 10:38:41;;;;;;;5.53;2.60;;;22.80;99.70;;;;;;5056573;28;20474;-66
2021/07/04 10:41:09;;;;;;;4.30;2.60;;;22.80;99.70;;;;;;5039348;28;20448;-66
2021/07/04 10:43:56;;;;;;;4.23;2.37;;;22.60;99.70;;;;;;5036499;28;20444;-66
2021/07/04 10:47:19;;;;;;;6.47;2.60;;;22.70;99.70;;;;;;5037206;28;20945;-66
2021/07/04 10:49:54;;;;;;;3.80;2.47;;;22.80;99.70;;;;;;5056434;28;20471;-66
2021/07/04 10:52:40;;;;;;;4.20;2.33;;;22.80;99.70;;;;;;5056419;28;20806;-66
2021/07/04 10:55:10;;;;;;;5.27;3.00;;;22.80;99.70;;;;;;5055625;28;20478;-66
2021/07/04 10:57:54;;;;;;;4.17;2.40;;;22.80;99.70;;;;;;5054522;28;20931;-66
2021/07/04 11:00:26;;;;;;;3.70;2.23;;;22.80;99.70;;;;;;5045878;28;20452;-67
2021/07/04 11:02:55;;;;;;;4.87;2.40;;;22.90;99.70;;;;;;5043290;28;20997;-66
2021/07/04 11:05:55;;;;;;;3.70;2.30;;;23.00;99.70;;;;;;5046343;28;20447;-66
2021/07/04 11:08:25;;;;;;;3.90;2.30;;;22.90;99.70;;;;;;4972290;28;21100;-66
2021/07/04 11:10:56;;;;;;;4.00;2.30;;;22.80;99.70;;;;;;4968335;28;20542;-67
2021/07/04 11:13:27;;;;;;;4.90;2.60;;;22.70;99.70;;;;;;5003821;28;20450;-65
2021/07/04 11:16:21;;;;;;;4.13;2.40;;;22.80;99.70;;;;;;5050347;28;20494;-66
2021/07/04 11:18:51;;;;;;;3.93;2.50;;;22.80;99.70;;;;;;5041305;28;20475;-66
2021/07/04 11:21:21;;;;;;;5.70;2.63;;;23.00;99.70;;;;;;5043406;28;20851;-67
2021/07/04 11:24:08;;;;;;;4.30;2.43;;;23.10;99.70;;;;;;5045722;28;20440;-66
2021/07/04 11:26:36;;;;;;;3.60;2.30;;;23.10;99.70;;;;;;5045599;28;20436;-66
2021/07/04 11:29:11;;;;;;;5.23;2.60;;;23.20;99.70;;;;;;5042982;28;20547;-66
2021/07/04 11:31:40;;;;;;;3.50;2.20;;;23.20;99.70;;;;;;5045697;28;20447;-66
2021/07/04 11:34:08;;;;;;;3.57;2.57;;;23.30;99.70;;;;;;5043905;28;20862;-67
2021/07/04 11:36:35;;;;;;;5.20;2.40;;;23.20;99.70;;;;;;5045315;28;20545;-66
2021/07/04 11:39:05;;;;;;;3.17;2.00;;;23.00;99.70;;;;;;5046036;28;20957;-67
2021/07/04 11:41:34;;;;;;;4.60;2.50;;;23.00;99.70;;;;;;5046266;28;20454;-66
2021/07/04 11:44:05;;;;;;;4.73;2.87;;;23.10;99.70;;;;;;5047402;28;20849;-66
2021/07/04 11:46:35;;;;;;;3.67;2.33;;;23.10;99.70;;;;;;5048778;28;20458;-66
2021/07/04 11:49:06;;;;;;;4.50;2.67;;;23.10;99.70;;;;;;5041923;28;20479;-66
2021/07/04 11:51:44;;;;;;;3.00;2.20;;;23.20;99.70;;;;;;5045518;28;20546;-66
2021/07/04 11:54:14;;;;;;;3.80;2.30;;;23.20;99.70;;;;;;5047599;28;21007;-66
2021/07/04 11:56:43;;;;;;;4.80;2.90;;;23.10;99.70;;;;;;5032667;28;20823;-66
2021/07/04 11:59:17;;;;;;;4.53;2.47;;;22.90;99.70;;;;;;5042147;28;20856;-68
2021/07/04 12:01:47;;;;;;;4.00;2.30;;;23.00;99.70;;;;;;5049093;28;20463;-66
2021/07/04 12:04:15;;;;;;;4.77;2.23;;;23.10;99.70;;;;;;5031850;28;20448;-67
2021/07/04 12:06:53;;;;;;;3.43;2.10;;;23.00;99.70;;;;;;5046172;28;20451;-67
2021/07/04 12:09:20;;;;;;;4.87;2.50;;;22.90;99.70;;;;;;5037718;28;20487;-67
2021/07/04 12:11:52;;;;;;;4.20;2.43;;;23.00;99.70;;;;;;5036199;28;20540;-66
2021/07/04 12:14:31;;;;;;;3.73;2.10;;;22.80;99.70;;;;;;5048209;28;20482;-66
2021/07/04 12:17:14;;;;;;;3.33;2.63;;;22.80;99.70;;;;;;5042197;28;21007;-66
2021/07/04 12:19:41;;;;;;;4.30;2.50;;;22.70;99.70;;;;;;5039001;28;20838;-66
2021/07/04 12:22:11;;;;;;;3.47;2.07;;;22.60;99.70;;;;;;5035526;28;20506;-66
2021/07/04 12:24:40;;;;;;;4.10;2.33;;;22.70;99.70;;;;;;5031820;28;20448;-66
2021/07/04 12:27:08;;;;;;;4.43;2.27;;;22.60;99.70;;;;;;5031818;28;20845;-66
2021/07/04 12:30:18;;;;;;;4.30;2.40;;;22.70;99.70;;;;;;5035205;28;20467;-66
2021/07/04 12:32:47;;;;;;;3.33;2.23;;;22.70;99.70;;;;;;5051921;28;20443;-66
2021/07/04 12:35:30;;;;;;;4.70;2.60;;;22.80;99.70;;;;;;5051143;28;20504;-67
2021/07/04 12:38:00;;;;;;;4.17;2.00;;;22.80;99.70;;;;;;5051371;28;20451;-66
2021/07/04 12:40:29;;;;;;;4.60;2.37;;;22.90;99.70;;;;;;5051536;28;20448;-66
2021/07/04 12:43:07;;;;;;;4.00;2.20;;;22.90;99.70;;;;;;5051459;28;20450;-66
2021/07/04 12:45:35;;;;;;;4.10;2.50;;;23.00;99.70;;;;;;5048274;28;20467;-66
2021/07/04 12:48:04;;;;;;;4.43;2.33;;;23.20;99.70;;;;;;5031335;28;20448;-66
2021/07/04 12:50:46;;;;;;;4.50;2.57;;;23.20;99.70;;;;;;5031326;28;20445;-67
2021/07/04 12:53:14;;;;;;;3.57;2.20;;;23.40;99.70;;;;;;5043895;28;20451;-67
2021/07/04 12:55:44;;;;;;;5.70;3.07;;;23.50;99.70;;;;;;5051091;28;20530;-66